WMT9K EDDH-EDDN
Flight info
| Callsign | WMT9K |
|---|---|
| Flight time | N/A |
| Altitude | 37000 |
| Route | AMLUH2G/33 AMLUH M852 DENIX DCT ZUCKA DCT GALMA M736 TABAT Q244 NIBIL/N0406F230 Q244 PIVIR PIVIR1V |
| Aircraft | A320/M-SDE3FGHIRWY/LB1 |
Departure
| Time | 2026-04-24 19:23 |
|---|---|
| Airport | Hamburg Helmut Schmidt Airport (EDDH) |
Arrival
| Time | N/A |
|---|---|
| Airport | Nuremberg Airport (EDDN) |
| Time | Latitude | Longitude | Altitude | Speed | Heading |
|---|---|---|---|---|---|
| 2026-04-24 18:54 | 53.63335 | 10.00351 | 62 ft | 0 kts | 84° |
| 2026-04-24 19:03 | 53.63335 | 10.00353 | 62 ft | 0 kts | 84° |
| 2026-04-24 19:03 | 53.63335 | 10.00352 | 62 ft | 0 kts | 84° |
| 2026-04-24 19:03 | 53.63335 | 10.00348 | 62 ft | 0 kts | 84° |
| 2026-04-24 19:03 | 53.63334 | 10.00338 | 61 ft | 1 kts | 84° |
| 2026-04-24 19:04 | 53.63334 | 10.00322 | 61 ft | 0 kts | 84° |
| 2026-04-24 19:05 | 53.63333 | 10.00318 | 61 ft | 0 kts | 84° |
| 2026-04-24 19:05 | 53.63333 | 10.00314 | 61 ft | 0 kts | 84° |
| 2026-04-24 19:05 | 53.63333 | 10.00311 | 61 ft | 0 kts | 84° |
| 2026-04-24 19:05 | 53.63332 | 10.00294 | 61 ft | 2 kts | 84° |
| 2026-04-24 19:06 | 53.63331 | 10.00254 | 62 ft | 3 kts | 96° |
| 2026-04-24 19:06 | 53.63337 | 10.00212 | 61 ft | 3 kts | 109° |
| 2026-04-24 19:06 | 53.63347 | 10.00169 | 61 ft | 3 kts | 127° |
| 2026-04-24 19:06 | 53.63358 | 10.00155 | 62 ft | 0 kts | 156° |
| 2026-04-24 19:07 | 53.63350 | 10.00161 | 61 ft | 2 kts | 161° |
| 2026-04-24 19:07 | 53.63329 | 10.00166 | 61 ft | 3 kts | 175° |
| 2026-04-24 19:07 | 53.63326 | 10.00167 | 61 ft | 0 kts | 175° |
| 2026-04-24 19:09 | 53.63264 | 10.00176 | 62 ft | 14 kts | 176° |
| 2026-04-24 19:10 | 53.63160 | 10.00186 | 62 ft | 14 kts | 176° |
| 2026-04-24 19:10 | 53.63059 | 10.00170 | 61 ft | 14 kts | 207° |
| 2026-04-24 19:10 | 53.62980 | 10.00089 | 61 ft | 0 kts | 212° |
| 2026-04-24 19:11 | 53.62974 | 10.00083 | 61 ft | 5 kts | 212° |
| 2026-04-24 19:11 | 53.62915 | 9.99968 | 61 ft | 18 kts | 240° |
| 2026-04-24 19:11 | 53.62897 | 9.99912 | 61 ft | 0 kts | 242° |
| 2026-04-24 19:20 | 53.62896 | 9.99910 | 61 ft | 0 kts | 242° |
| 2026-04-24 19:20 | 53.62892 | 9.99896 | 61 ft | 1 kts | 242° |
| 2026-04-24 19:20 | 53.62872 | 9.99829 | 62 ft | 15 kts | 248° |
| 2026-04-24 19:20 | 53.62929 | 9.99690 | 62 ft | 9 kts | 332° |
| 2026-04-24 19:21 | 53.62931 | 9.99688 | 61 ft | 0 kts | 332° |
| 2026-04-24 19:22 | 53.63008 | 9.99622 | 62 ft | 46 kts | 333° |
| 2026-04-24 19:22 | 53.63542 | 9.99164 | 62 ft | 122 kts | 333° |
| 2026-04-24 19:23 | 53.64498 | 9.98335 | 90 ft | 179 kts | 333° |
| 2026-04-24 19:23 | 53.65628 | 9.97349 | 660 ft | 190 kts | 332° |
| 2026-04-24 19:23 | 53.66815 | 9.96269 | 1320 ft | 203 kts | 331° |
| 2026-04-24 19:23 | 53.68079 | 9.95082 | 2090 ft | 216 kts | 334° |
| 2026-04-24 19:24 | 53.69548 | 9.94401 | 2903 ft | 227 kts | 357° |
| 2026-04-24 19:24 | 53.71120 | 9.94414 | 3779 ft | 231 kts | 3° |
| 2026-04-24 19:24 | 53.72666 | 9.95048 | 4383 ft | 234 kts | 32° |
| 2026-04-24 19:24 | 53.73757 | 9.97022 | 4740 ft | 235 kts | 66° |
| 2026-04-24 19:25 | 53.74138 | 9.99717 | 4816 ft | 235 kts | 83° |
| 2026-04-24 19:25 | 53.74245 | 10.02479 | 4805 ft | 235 kts | 96° |
| 2026-04-24 19:25 | 53.73784 | 10.05120 | 4816 ft | 245 kts | 117° |
| 2026-04-24 19:25 | 53.72913 | 10.07746 | 4820 ft | 263 kts | 121° |
| 2026-04-24 19:26 | 53.71973 | 10.10414 | 4814 ft | 266 kts | 121° |
| 2026-04-24 19:26 | 53.71036 | 10.13111 | 4812 ft | 267 kts | 120° |
| 2026-04-24 19:26 | 53.70113 | 10.15819 | 4811 ft | 267 kts | 120° |
| 2026-04-24 19:26 | 53.69172 | 10.18514 | 4807 ft | 267 kts | 126° |
| 2026-04-24 19:27 | 53.67808 | 10.20640 | 4803 ft | 267 kts | 151° |
| 2026-04-24 19:27 | 53.66073 | 10.21741 | 4815 ft | 267 kts | 164° |
| 2026-04-24 19:27 | 53.64296 | 10.22539 | 4812 ft | 267 kts | 165° |
| 2026-04-24 19:27 | 53.62500 | 10.23317 | 4811 ft | 267 kts | 165° |
| 2026-04-24 19:28 | 53.60695 | 10.24110 | 4810 ft | 267 kts | 165° |
| 2026-04-24 19:28 | 53.58903 | 10.24912 | 4810 ft | 267 kts | 165° |
| 2026-04-24 19:28 | 53.57128 | 10.25716 | 4810 ft | 267 kts | 165° |
| 2026-04-24 19:28 | 53.55339 | 10.26530 | 4810 ft | 267 kts | 165° |
| 2026-04-24 19:29 | 53.51772 | 10.28160 | 4810 ft | 267 kts | 165° |
| 2026-04-24 19:29 | 53.49965 | 10.28987 | 4810 ft | 267 kts | 165° |
| 2026-04-24 19:29 | 53.48484 | 10.29663 | 4810 ft | 267 kts | 165° |
| 2026-04-24 19:30 | 53.47958 | 10.29903 | 4810 ft | 267 kts | 165° |
| 2026-04-24 19:30 | 53.46181 | 10.30713 | 4810 ft | 267 kts | 165° |
| 2026-04-24 19:30 | 53.44399 | 10.31526 | 4810 ft | 267 kts | 165° |
| 2026-04-24 19:30 | 53.42607 | 10.32341 | 4810 ft | 267 kts | 165° |
| 2026-04-24 19:31 | 53.40785 | 10.33163 | 4945 ft | 274 kts | 165° |
| 2026-04-24 19:31 | 53.38907 | 10.34006 | 5458 ft | 291 kts | 165° |
| 2026-04-24 19:31 | 53.36904 | 10.34904 | 6113 ft | 305 kts | 165° |
| 2026-04-24 19:31 | 53.34880 | 10.35812 | 6999 ft | 309 kts | 165° |
| 2026-04-24 19:32 | 53.32790 | 10.36750 | 7916 ft | 312 kts | 165° |
| 2026-04-24 19:32 | 53.30709 | 10.37683 | 8764 ft | 317 kts | 165° |
| 2026-04-24 19:32 | 53.28563 | 10.38645 | 9400 ft | 320 kts | 165° |
| 2026-04-24 19:32 | 53.26426 | 10.39602 | 9743 ft | 321 kts | 165° |
| 2026-04-24 19:33 | 53.24279 | 10.40564 | 9804 ft | 321 kts | 165° |
| 2026-04-24 19:33 | 53.22122 | 10.41529 | 9808 ft | 321 kts | 165° |
| 2026-04-24 19:33 | 53.19963 | 10.42494 | 9809 ft | 321 kts | 165° |
| 2026-04-24 19:33 | 53.17800 | 10.43478 | 9820 ft | 318 kts | 167° |
| 2026-04-24 19:34 | 53.15692 | 10.44435 | 9849 ft | 313 kts | 168° |
| 2026-04-24 19:34 | 53.13604 | 10.45350 | 9884 ft | 312 kts | 169° |
| 2026-04-24 19:34 | 53.11501 | 10.46102 | 9912 ft | 311 kts | 172° |
| 2026-04-24 19:34 | 53.09388 | 10.46761 | 9933 ft | 311 kts | 172° |
| 2026-04-24 19:35 | 53.07256 | 10.47423 | 9946 ft | 312 kts | 172° |
| 2026-04-24 19:35 | 53.05120 | 10.48085 | 9990 ft | 313 kts | 173° |
| 2026-04-24 19:35 | 53.02995 | 10.48745 | 9974 ft | 313 kts | 173° |
| 2026-04-24 19:35 | 53.00869 | 10.49405 | 9969 ft | 314 kts | 173° |
| 2026-04-24 19:36 | 52.98701 | 10.50077 | 9967 ft | 315 kts | 173° |
| 2026-04-24 19:36 | 52.96539 | 10.50748 | 9975 ft | 317 kts | 173° |
| 2026-04-24 19:36 | 52.94336 | 10.51428 | 10382 ft | 326 kts | 173° |
| 2026-04-24 19:36 | 52.92153 | 10.52105 | 11343 ft | 323 kts | 173° |
| 2026-04-24 19:37 | 52.89970 | 10.52782 | 12211 ft | 324 kts | 173° |
| 2026-04-24 19:37 | 52.87732 | 10.53477 | 12992 ft | 327 kts | 173° |
| 2026-04-24 19:37 | 52.85535 | 10.54157 | 13717 ft | 330 kts | 174° |
| 2026-04-24 19:37 | 52.83263 | 10.54858 | 14445 ft | 334 kts | 174° |
| 2026-04-24 19:38 | 52.80964 | 10.55567 | 15157 ft | 338 kts | 174° |
| 2026-04-24 19:38 | 52.78655 | 10.56277 | 15844 ft | 342 kts | 175° |
| 2026-04-24 19:38 | 52.76337 | 10.56989 | 16509 ft | 345 kts | 175° |
| 2026-04-24 19:38 | 52.73983 | 10.57711 | 17157 ft | 349 kts | 175° |
| 2026-04-24 19:39 | 52.71586 | 10.58445 | 17793 ft | 353 kts | 176° |
| 2026-04-24 19:39 | 52.69181 | 10.59181 | 18408 ft | 357 kts | 176° |
| 2026-04-24 19:39 | 52.66727 | 10.59931 | 19011 ft | 361 kts | 176° |
| 2026-04-24 19:39 | 52.64262 | 10.60684 | 19595 ft | 365 kts | 176° |
| 2026-04-24 19:40 | 52.61763 | 10.61446 | 20172 ft | 368 kts | 177° |
| 2026-04-24 19:40 | 52.59224 | 10.62220 | 20745 ft | 372 kts | 177° |
| 2026-04-24 19:40 | 52.56698 | 10.62988 | 21300 ft | 376 kts | 177° |
| 2026-04-24 19:40 | 52.54130 | 10.63769 | 21848 ft | 380 kts | 178° |
| 2026-04-24 19:41 | 52.52935 | 10.64132 | 22098 ft | 382 kts | 178° |
| 2026-04-24 19:41 | 52.50745 | 10.64797 | 22548 ft | 385 kts | 178° |
| 2026-04-24 19:41 | 52.48112 | 10.65595 | 23077 ft | 389 kts | 179° |
| 2026-04-24 19:41 | 52.45451 | 10.66401 | 23592 ft | 392 kts | 179° |
| 2026-04-24 19:42 | 52.42745 | 10.67219 | 23919 ft | 396 kts | 179° |
| 2026-04-24 19:42 | 52.40055 | 10.68031 | 24060 ft | 399 kts | 179° |
| 2026-04-24 19:42 | 52.37335 | 10.68850 | 24498 ft | 403 kts | 179° |
| 2026-04-24 19:42 | 52.34574 | 10.69686 | 25059 ft | 404 kts | 179° |
| 2026-04-24 19:43 | 52.31794 | 10.70525 | 25530 ft | 407 kts | 180° |
| 2026-04-24 19:43 | 52.29034 | 10.71354 | 25959 ft | 411 kts | 180° |
| 2026-04-24 19:43 | 52.26222 | 10.72197 | 26385 ft | 414 kts | 180° |
| 2026-04-24 19:43 | 52.23402 | 10.73042 | 26798 ft | 418 kts | 180° |
| 2026-04-24 19:44 | 52.20511 | 10.73907 | 27207 ft | 422 kts | 180° |
| 2026-04-24 19:44 | 52.17655 | 10.74762 | 27594 ft | 425 kts | 180° |
| 2026-04-24 19:44 | 52.14738 | 10.75629 | 27810 ft | 433 kts | 180° |
| 2026-04-24 19:44 | 52.11724 | 10.76521 | 27987 ft | 441 kts | 180° |
| 2026-04-24 19:45 | 52.08848 | 10.77373 | 28146 ft | 448 kts | 180° |
| 2026-04-24 19:45 | 52.05603 | 10.78336 | 28316 ft | 456 kts | 180° |
| 2026-04-24 19:45 | 52.02498 | 10.79259 | 28467 ft | 463 kts | 180° |
| 2026-04-24 19:45 | 51.99323 | 10.80203 | 28614 ft | 469 kts | 180° |
| 2026-04-24 19:46 | 51.96082 | 10.81166 | 28822 ft | 473 kts | 180° |
| 2026-04-24 19:46 | 51.92859 | 10.82128 | 29144 ft | 473 kts | 180° |
| 2026-04-24 19:46 | 51.89646 | 10.83087 | 29497 ft | 473 kts | 180° |
| 2026-04-24 19:46 | 51.86449 | 10.84037 | 29823 ft | 473 kts | 180° |
| 2026-04-24 19:47 | 51.83190 | 10.84999 | 30128 ft | 473 kts | 180° |
| 2026-04-24 19:47 | 51.79962 | 10.85948 | 30412 ft | 474 kts | 180° |
| 2026-04-24 19:47 | 51.76771 | 10.86885 | 30682 ft | 475 kts | 180° |
| 2026-04-24 19:47 | 51.73502 | 10.88104 | 30909 ft | 486 kts | 173° |
| 2026-04-24 19:48 | 51.70318 | 10.90021 | 30946 ft | 499 kts | 165° |
| 2026-04-24 19:48 | 51.67249 | 10.92724 | 30948 ft | 511 kts | 155° |
| 2026-04-24 19:48 | 51.61820 | 11.00425 | 30946 ft | 533 kts | 136° |
| 2026-04-24 19:49 | 51.52666 | 11.19345 | 30943 ft | 536 kts | 133° |
| 2026-04-24 19:50 | 51.43177 | 11.37548 | 30941 ft | 526 kts | 145° |
| 2026-04-24 19:51 | 51.37162 | 11.43637 | 30947 ft | 501 kts | 167° |
| 2026-04-24 19:51 | 51.33924 | 11.45335 | 30948 ft | 488 kts | 177° |
| 2026-04-24 19:52 | 51.27350 | 11.46534 | 30953 ft | 470 kts | 188° |
| 2026-04-24 19:52 | 51.24096 | 11.46765 | 30954 ft | 470 kts | 188° |
| 2026-04-24 19:52 | 51.17593 | 11.47255 | 30960 ft | 471 kts | 188° |
| 2026-04-24 19:53 | 51.11043 | 11.47856 | 30965 ft | 472 kts | 187° |
| 2026-04-24 19:54 | 51.01268 | 11.48792 | 30966 ft | 473 kts | 187° |
| 2026-04-24 19:54 | 50.94677 | 11.49404 | 30965 ft | 480 kts | 186° |
| 2026-04-24 19:55 | 50.89136 | 11.49922 | 30963 ft | 486 kts | 185° |
| 2026-04-24 19:55 | 50.81201 | 11.50685 | 30966 ft | 490 kts | 185° |
| 2026-04-24 19:56 | 50.74418 | 11.51341 | 30961 ft | 491 kts | 185° |
| 2026-04-24 19:56 | 50.67645 | 11.51985 | 30953 ft | 491 kts | 185° |
| 2026-04-24 19:57 | 50.61975 | 11.52521 | 30947 ft | 491 kts | 185° |
| 2026-04-24 19:57 | 50.55151 | 11.53260 | 30943 ft | 494 kts | 182° |
| 2026-04-24 19:58 | 50.48356 | 11.54625 | 30943 ft | 496 kts | 181° |
| 2026-04-24 19:58 | 50.41508 | 11.56042 | 30942 ft | 496 kts | 181° |
| 2026-04-24 19:59 | 50.34713 | 11.57438 | 30942 ft | 496 kts | 181° |
| 2026-04-24 19:59 | 50.27903 | 11.58831 | 30942 ft | 496 kts | 181° |
| 2026-04-24 20:00 | 50.21089 | 11.60220 | 30942 ft | 496 kts | 181° |
| 2026-04-24 20:00 | 50.14257 | 11.61609 | 30942 ft | 496 kts | 181° |
| 2026-04-24 20:01 | 50.07417 | 11.62582 | 30942 ft | 489 kts | 187° |
| 2026-04-24 20:01 | 50.00751 | 11.62132 | 30939 ft | 476 kts | 196° |
| 2026-04-24 20:02 | 49.94380 | 11.60186 | 30930 ft | 464 kts | 205° |
| 2026-04-24 20:02 | 49.88415 | 11.56810 | 30917 ft | 452 kts | 214° |
| 2026-04-24 20:03 | 49.82748 | 11.52818 | 30911 ft | 451 kts | 214° |
| 2026-04-24 20:03 | 49.77032 | 11.48773 | 30907 ft | 451 kts | 214° |
| 2026-04-24 20:04 | 49.71487 | 11.44515 | 30889 ft | 434 kts | 227° |
| 2026-04-24 20:04 | 49.69444 | 11.41286 | 30901 ft | 411 kts | 244° |
| 2026-04-24 20:04 | 49.68213 | 11.37456 | 30910 ft | 394 kts | 259° |
| 2026-04-24 20:04 | 49.67764 | 11.33364 | 30916 ft | 383 kts | 273° |
| 2026-04-24 20:05 | 49.68000 | 11.29322 | 30929 ft | 379 kts | 281° |
| 2026-04-24 20:05 | 49.68767 | 11.21256 | 30932 ft | 379 kts | 281° |
| 2026-04-24 20:06 | 49.69546 | 11.13277 | 30869 ft | 375 kts | 281° |
| 2026-04-24 20:06 | 49.69936 | 11.09288 | 30346 ft | 373 kts | 281° |
| 2026-04-24 20:06 | 49.70325 | 11.05337 | 29381 ft | 379 kts | 280° |
| 2026-04-24 20:06 | 49.70721 | 11.01327 | 28248 ft | 388 kts | 279° |
| 2026-04-24 20:07 | 49.70992 | 10.98567 | 27536 ft | 392 kts | 279° |
| 2026-04-24 20:07 | 49.71522 | 10.93090 | 26650 ft | 386 kts | 278° |
| 2026-04-24 20:07 | 49.71913 | 10.89007 | 26018 ft | 383 kts | 278° |
| 2026-04-24 20:07 | 49.72142 | 10.84948 | 25315 ft | 381 kts | 268° |
| 2026-04-24 20:08 | 49.71505 | 10.80974 | 24583 ft | 386 kts | 249° |
| 2026-04-24 20:08 | 49.70020 | 10.77568 | 23937 ft | 394 kts | 231° |
| 2026-04-24 20:08 | 49.67786 | 10.75114 | 23286 ft | 407 kts | 211° |
| 2026-04-24 20:08 | 49.64994 | 10.74067 | 22647 ft | 424 kts | 189° |
| 2026-04-24 20:09 | 49.62033 | 10.74747 | 22047 ft | 440 kts | 167° |
| 2026-04-24 20:09 | 49.59381 | 10.77079 | 21481 ft | 453 kts | 145° |
| 2026-04-24 20:09 | 49.58518 | 10.78358 | 21268 ft | 456 kts | 136° |
| 2026-04-24 20:10 | 49.57422 | 10.80662 | 20942 ft | 460 kts | 123° |
| 2026-04-24 20:10 | 49.56331 | 10.85204 | 20406 ft | 463 kts | 101° |
| 2026-04-24 20:10 | 49.56324 | 10.90159 | 19871 ft | 459 kts | 78° |
| 2026-04-24 20:10 | 49.57395 | 10.94640 | 19350 ft | 449 kts | 56° |
| 2026-04-24 20:11 | 49.59152 | 10.98553 | 18842 ft | 442 kts | 53° |
| 2026-04-24 20:11 | 49.60564 | 11.02757 | 18298 ft | 441 kts | 70° |
| 2026-04-24 20:11 | 49.61200 | 11.07354 | 17767 ft | 436 kts | 87° |
| 2026-04-24 20:11 | 49.61013 | 11.11910 | 17244 ft | 427 kts | 104° |
| 2026-04-24 20:12 | 49.60089 | 11.16222 | 16725 ft | 418 kts | 115° |
| 2026-04-24 20:12 | 49.59085 | 11.20387 | 16200 ft | 416 kts | 110° |
| 2026-04-24 20:12 | 49.58349 | 11.24683 | 15676 ft | 414 kts | 104° |
| 2026-04-24 20:12 | 49.57830 | 11.28973 | 15248 ft | 408 kts | 101° |
| 2026-04-24 20:13 | 49.57398 | 11.33262 | 14993 ft | 397 kts | 101° |
| 2026-04-24 20:13 | 49.57002 | 11.37369 | 14964 ft | 380 kts | 101° |
| 2026-04-24 20:13 | 49.56615 | 11.41322 | 14957 ft | 364 kts | 101° |
| 2026-04-24 20:13 | 49.56237 | 11.45102 | 14957 ft | 356 kts | 101° |
| 2026-04-24 20:14 | 49.55852 | 11.48866 | 14954 ft | 358 kts | 101° |
| 2026-04-24 20:14 | 49.55459 | 11.52689 | 14951 ft | 359 kts | 101° |
| 2026-04-24 20:14 | 49.55069 | 11.56484 | 14947 ft | 359 kts | 101° |
| 2026-04-24 20:14 | 49.54640 | 11.60222 | 14938 ft | 357 kts | 108° |
| 2026-04-24 20:15 | 49.53537 | 11.63556 | 14921 ft | 345 kts | 136° |
| 2026-04-24 20:15 | 49.51656 | 11.65661 | 14931 ft | 331 kts | 165° |
| 2026-04-24 20:15 | 49.49438 | 11.66134 | 14936 ft | 317 kts | 193° |
| 2026-04-24 20:15 | 49.47425 | 11.65064 | 14962 ft | 307 kts | 213° |
| 2026-04-24 20:16 | 49.45804 | 11.63050 | 14741 ft | 298 kts | 232° |
| 2026-04-24 20:16 | 49.44830 | 11.60254 | 14184 ft | 300 kts | 255° |
| 2026-04-24 20:16 | 49.44685 | 11.57060 | 13662 ft | 304 kts | 275° |
| 2026-04-24 20:16 | 49.45108 | 11.53916 | 13308 ft | 302 kts | 281° |
| 2026-04-24 20:17 | 49.45603 | 11.50815 | 12978 ft | 297 kts | 280° |
| 2026-04-24 20:17 | 49.46330 | 11.44685 | 12119 ft | 295 kts | 276° |
| 2026-04-24 20:17 | 49.46625 | 11.41567 | 11703 ft | 293 kts | 276° |
| 2026-04-24 20:18 | 49.46816 | 11.39498 | 11500 ft | 290 kts | 276° |
| 2026-04-24 20:18 | 49.47203 | 11.35334 | 10461 ft | 306 kts | 277° |
| 2026-04-24 20:18 | 49.47516 | 11.32030 | 9557 ft | 319 kts | 277° |
| 2026-04-24 20:18 | 49.47848 | 11.28557 | 7503 ft | 364 kts | 277° |
| 2026-04-24 20:19 | 49.48212 | 11.24634 | 6109 ft | 379 kts | 277° |
| 2026-04-24 20:19 | 49.48573 | 11.20637 | 5291 ft | 371 kts | 279° |
| 2026-04-24 20:19 | 49.49033 | 11.16773 | 3716 ft | 372 kts | 281° |
| 2026-04-24 20:19 | 49.49502 | 11.12970 | 2856 ft | 351 kts | 282° |
| 2026-04-24 20:20 | 49.50001 | 11.09404 | 3695 ft | 337 kts | 283° |
| 2026-04-24 20:20 | 49.50385 | 11.05880 | 4584 ft | 333 kts | 276° |
| 2026-04-24 20:20 | 49.50750 | 11.02243 | 4656 ft | 355 kts | 281° |
| 2026-04-24 20:20 | 49.51314 | 10.98471 | 4673 ft | 370 kts | 283° |
| 2026-04-24 20:21 | 49.51942 | 10.94630 | 5013 ft | 371 kts | 284° |
| 2026-04-24 20:21 | 49.52575 | 10.90842 | 5371 ft | 356 kts | 284° |
| 2026-04-24 20:21 | 49.53122 | 10.87314 | 5418 ft | 316 kts | 277° |
| 2026-04-24 20:21 | 49.52982 | 10.84160 | 5396 ft | 286 kts | 253° |
| 2026-04-24 20:22 | 49.52266 | 10.81450 | 5394 ft | 259 kts | 245° |
| 2026-04-24 20:22 | 49.51185 | 10.79305 | 5695 ft | 266 kts | 212° |
| 2026-04-24 20:22 | 49.49399 | 10.78596 | 6221 ft | 282 kts | 182° |
| 2026-04-24 20:22 | 49.47334 | 10.78729 | 6220 ft | 311 kts | 181° |
| 2026-04-24 20:23 | 49.45099 | 10.79045 | 6216 ft | 336 kts | 166° |
| 2026-04-24 20:23 | 49.42924 | 10.80620 | 6216 ft | 358 kts | 144° |
| 2026-04-24 20:23 | 49.41161 | 10.83449 | 6219 ft | 376 kts | 123° |
| 2026-04-24 20:23 | 49.40062 | 10.87093 | 6209 ft | 388 kts | 109° |
| 2026-04-24 20:24 | 49.39257 | 10.91147 | 6236 ft | 397 kts | 104° |
| 2026-04-24 20:24 | 49.38621 | 10.95159 | 6180 ft | 370 kts | 103° |
| 2026-04-24 20:24 | 49.38099 | 10.98801 | 6156 ft | 334 kts | 102° |
| 2026-04-24 20:24 | 49.37653 | 11.02143 | 6061 ft | 307 kts | 101° |
| 2026-04-24 20:25 | 49.37299 | 11.05246 | 5940 ft | 284 kts | 98° |
| 2026-04-24 20:25 | 49.37032 | 11.08130 | 5753 ft | 267 kts | 96° |
| 2026-04-24 20:25 | 49.36833 | 11.10881 | 5507 ft | 254 kts | 95° |
| 2026-04-24 20:25 | 49.36681 | 11.13553 | 5216 ft | 246 kts | 93° |
| 2026-04-24 20:26 | 49.36577 | 11.16108 | 4901 ft | 239 kts | 92° |
| 2026-04-24 20:26 | 49.36516 | 11.18630 | 4567 ft | 234 kts | 90° |
| 2026-04-24 20:26 | 49.36500 | 11.21113 | 4220 ft | 230 kts | 88° |
| 2026-04-24 20:26 | 49.36529 | 11.23554 | 3869 ft | 227 kts | 86° |
| 2026-04-24 20:27 | 49.36603 | 11.25934 | 3518 ft | 224 kts | 85° |
| 2026-04-24 20:27 | 49.36721 | 11.28306 | 3164 ft | 222 kts | 83° |
| 2026-04-24 20:27 | 49.36931 | 11.30631 | 2920 ft | 214 kts | 71° |
| 2026-04-24 20:27 | 49.37437 | 11.32759 | 2961 ft | 213 kts | 76° |